Time;durP1;ratioP1;P1;durP2;ratioP2;P2;SDS_P1;SDS_P2;PMS_P1;PMS_P2;Temp;Humidity;BMP_temperature;BMP_pressure;BME280_temperature;BME280_humidity;BME280_pressure;Samples;Min_cycle;Max_cycle;Signal;HPM_P1;HPM_P2
2023/04/26 00:00:19;;;;;;;5.07;2.55;;;6.50;93.80;;;;;;4913610;28;20129;-82
2023/04/26 00:02:45;;;;;;;5.20;2.17;;;6.50;93.80;;;;;;4949608;28;20098;-81
2023/04/26 00:05:11;;;;;;;5.97;2.00;;;6.50;93.80;;;;;;4942371;28;20034;-83
2023/04/26 00:07:37;;;;;;;5.13;2.10;;;6.40;93.80;;;;;;4923018;28;20038;-82
2023/04/26 00:10:04;;;;;;;4.17;1.97;;;6.40;93.80;;;;;;4932930;28;20039;-83
2023/04/26 00:12:29;;;;;;;4.13;2.00;;;6.30;93.80;;;;;;4929250;28;20058;-81
2023/04/26 00:14:55;;;;;;;5.07;2.20;;;6.30;93.90;;;;;;4931770;28;20027;-83
2023/04/26 00:17:23;;;;;;;4.32;1.88;;;6.30;93.90;;;;;;4927124;28;20416;-81
2023/04/26 00:19:49;;;;;;;4.97;2.10;;;6.30;93.90;;;;;;4906750;28;20451;-81
2023/04/26 00:22:15;;;;;;;3.88;1.90;;;6.20;93.90;;;;;;4934490;28;20023;-83
2023/04/26 00:24:42;;;;;;;5.00;2.00;;;6.20;94.00;;;;;;4936514;28;20019;-82
2023/04/26 00:27:09;;;;;;;3.45;1.80;;;6.20;94.00;;;;;;4924473;28;20750;-83
2023/04/26 00:29:36;;;;;;;4.75;2.00;;;6.10;94.10;;;;;;4941837;28;21679;-81
2023/04/26 00:32:02;;;;;;;4.65;2.00;;;6.10;94.10;;;;;;4930907;28;20023;-83
2023/04/26 00:34:37;;;;;;;4.37;2.10;;;6.10;94.20;;;;;;4937614;28;20035;-81
2023/04/26 00:37:04;;;;;;;4.13;2.05;;;6.00;94.10;;;;;;4954987;28;20050;-83
2023/04/26 00:39:30;;;;;;;3.92;2.15;;;6.00;94.20;;;;;;4934132;28;20285;-83
2023/04/26 00:41:56;;;;;;;4.40;2.10;;;6.00;94.20;;;;;;4955799;28;20232;-82
2023/04/26 00:44:22;;;;;;;5.60;2.30;;;6.00;94.20;;;;;;4939051;28;20050;-81
2023/04/26 00:46:51;;;;;;;5.33;2.70;;;6.00;94.20;;;;;;4931006;28;20034;-82
2023/04/26 00:49:20;;;;;;;6.55;2.40;;;6.00;94.20;;;;;;4909027;28;20038;-83
2023/04/26 00:51:47;;;;;;;5.45;2.35;;;5.90;94.30;;;;;;4934705;28;20069;-81
2023/04/26 00:54:14;;;;;;;5.18;2.50;;;5.90;94.30;;;;;;4931132;28;20074;-83
2023/04/26 00:56:41;;;;;;;5.18;2.30;;;5.90;94.40;;;;;;4955696;28;20066;-82
2023/04/26 00:59:07;;;;;;;5.73;2.27;;;5.80;94.40;;;;;;4925398;28;20030;-83
2023/04/26 01:01:34;;;;;;;3.33;1.85;;;5.80;94.40;;;;;;4928038;28;20105;-81
2023/04/26 01:04:01;;;;;;;4.30;1.90;;;5.80;94.40;;;;;;4929896;28;20054;-83
2023/04/26 01:06:33;;;;;;;3.50;2.10;;;5.80;94.40;;;;;;4942534;28;20035;-81
2023/04/26 01:09:03;;;;;;;4.23;2.07;;;5.80;94.40;;;;;;4929355;28;20078;-83
2023/04/26 01:11:30;;;;;;;4.30;2.10;;;5.70;94.50;;;;;;4941904;28;20026;-82
2023/04/26 01:13:57;;;;;;;3.90;2.00;;;5.70;94.50;;;;;;4916211;28;20050;-83
2023/04/26 01:16:23;;;;;;;4.43;2.00;;;5.70;94.50;;;;;;4952599;28;20025;-82
2023/04/26 01:18:53;;;;;;;4.28;1.65;;;5.60;94.40;;;;;;4916676;28;20106;-83
2023/04/26 01:21:20;;;;;;;3.73;1.70;;;5.60;94.40;;;;;;4943004;28;20046;-82
2023/04/26 01:23:47;;;;;;;5.03;1.95;;;5.60;94.40;;;;;;4926026;28;20062;-83
2023/04/26 01:26:12;;;;;;;4.05;2.00;;;5.60;94.40;;;;;;4933220;28;20023;-82
2023/04/26 01:28:38;;;;;;;3.30;1.70;;;5.50;94.50;;;;;;4943920;28;20579;-82
2023/04/26 01:31:04;;;;;;;3.97;1.90;;;5.50;94.40;;;;;;4923511;28;20027;-83
2023/04/26 01:33:29;;;;;;;4.32;1.90;;;5.50;94.40;;;;;;4915892;28;20023;-81
2023/04/26 01:35:55;;;;;;;4.60;2.00;;;5.50;94.50;;;;;;4901681;28;20069;-83
2023/04/26 01:38:21;;;;;;;5.10;1.90;;;5.40;94.40;;;;;;4932191;28;20038;-82
2023/04/26 01:40:47;;;;;;;3.30;1.80;;;5.40;94.40;;;;;;4954986;28;20055;-83
2023/04/26 01:43:14;;;;;;;3.95;2.10;;;5.30;94.40;;;;;;4930764;28;20065;-82
2023/04/26 01:45:40;;;;;;;2.83;1.60;;;5.30;94.40;;;;;;4943668;28;20054;-83
2023/04/26 01:48:07;;;;;;;3.37;1.67;;;5.30;94.50;;;;;;4932380;28;20031;-83
2023/04/26 01:50:33;;;;;;;3.75;1.80;;;5.30;94.50;;;;;;4932949;28;20027;-83
2023/04/26 01:52:59;;;;;;;3.33;1.65;;;5.30;94.40;;;;;;4954063;28;20082;-82
2023/04/26 01:55:25;;;;;;;4.43;1.80;;;5.20;94.30;;;;;;4931473;28;20106;-83
2023/04/26 01:57:50;;;;;;;3.20;1.60;;;5.20;94.40;;;;;;4955716;28;20663;-82
2023/04/26 02:00:16;;;;;;;3.07;1.60;;;5.20;94.40;;;;;;4934598;28;20593;-84
2023/04/26 02:02:42;;;;;;;3.97;1.58;;;5.10;94.40;;;;;;4919918;28;20785;-82
2023/04/26 02:05:10;;;;;;;2.67;1.50;;;5.10;94.50;;;;;;4938773;28;20517;-82
2023/04/26 02:07:36;;;;;;;4.03;1.70;;;5.10;94.50;;;;;;4927549;28;20401;-82
2023/04/26 02:10:02;;;;;;;3.60;1.65;;;5.00;94.50;;;;;;4934690;28;20054;-83
2023/04/26 02:12:27;;;;;;;4.85;1.92;;;5.00;94.50;;;;;;4950414;28;20031;-84
2023/04/26 02:14:53;;;;;;;3.93;1.70;;;5.00;94.50;;;;;;4941117;28;20034;-82
2023/04/26 02:17:20;;;;;;;4.25;1.60;;;5.00;94.50;;;;;;4928370;28;20117;-83
2023/04/26 02:19:45;;;;;;;3.70;1.70;;;4.90;94.50;;;;;;4912580;28;20284;-83
2023/04/26 02:22:12;;;;;;;4.33;1.73;;;4.90;94.50;;;;;;4935917;28;20022;-82
2023/04/26 02:24:37;;;;;;;3.05;1.70;;;4.90;94.50;;;;;;4934331;28;20226;-83
2023/04/26 02:27:04;;;;;;;3.67;1.97;;;4.80;94.50;;;;;;4948573;28;20085;-82
2023/04/26 02:29:30;;;;;;;4.15;1.80;;;4.80;94.50;;;;;;4930139;28;20038;-83
2023/04/26 02:31:57;;;;;;;3.30;1.70;;;4.80;94.60;;;;;;4948319;28;20023;-82
2023/04/26 02:34:23;;;;;;;3.80;1.88;;;4.70;94.60;;;;;;4916169;28;20031;-83
2023/04/26 02:36:48;;;;;;;3.37;1.67;;;4.70;94.70;;;;;;4917830;28;20478;-82
2023/04/26 02:39:14;;;;;;;4.00;1.70;;;4.70;95.10;;;;;;4932972;28;20030;-84
2023/04/26 02:41:40;;;;;;;4.50;1.90;;;4.70;94.80;;;;;;4921226;28;20589;-82
2023/04/26 02:44:07;;;;;;;4.47;1.95;;;4.70;94.90;;;;;;4939185;28;20775;-82
2023/04/26 02:46:33;;;;;;;4.40;2.00;;;4.60;94.90;;;;;;4951973;28;20035;-84
2023/04/26 02:48:58;;;;;;;4.10;2.00;;;4.60;95.00;;;;;;4922943;28;20552;-84
2023/04/26 02:51:25;;;;;;;3.88;1.90;;;4.60;95.00;;;;;;4931132;28;20030;-84
2023/04/26 02:53:51;;;;;;;3.57;1.70;;;4.60;95.10;;;;;;4906690;28;20768;-84
2023/04/26 02:56:18;;;;;;;4.18;1.92;;;4.60;95.10;;;;;;4954958;28;20118;-84
2023/04/26 02:58:45;;;;;;;4.05;1.80;;;4.60;95.10;;;;;;4947360;28;20443;-82
2023/04/26 03:01:12;;;;;;;3.65;1.70;;;4.60;95.00;;;;;;4938232;28;20447;-83
2023/04/26 03:03:37;;;;;;;3.63;1.53;;;4.60;95.10;;;;;;4928062;28;20033;-82
2023/04/26 03:06:03;;;;;;;3.50;1.88;;;4.60;95.10;;;;;;4944547;28;20477;-83
2023/04/26 03:08:29;;;;;;;3.70;1.90;;;4.60;95.10;;;;;;4934156;28;20053;-84
2023/04/26 03:10:55;;;;;;;3.60;1.80;;;4.60;95.10;;;;;;4954226;28;20038;-82
2023/04/26 03:13:24;;;;;;;4.13;2.05;;;4.50;95.10;;;;;;4950220;28;20027;-84
2023/04/26 03:15:51;;;;;;;4.50;2.10;;;4.50;95.10;;;;;;4951724;28;20161;-84
2023/04/26 03:18:17;;;;;;;3.72;1.80;;;4.50;95.30;;;;;;4935968;28;20544;-84
2023/04/26 03:20:42;;;;;;;3.45;1.80;;;4.50;95.30;;;;;;4921313;28;20233;-82
2023/04/26 03:23:08;;;;;;;3.40;1.70;;;4.50;95.40;;;;;;4937129;28;20027;-82
2023/04/26 03:25:35;;;;;;;3.40;1.70;;;4.50;95.40;;;;;;4927813;28;20053;-82
2023/04/26 03:28:01;;;;;;;4.47;1.90;;;4.50;95.50;;;;;;4942784;28;20450;-83
2023/04/26 03:30:27;;;;;;;3.97;1.60;;;4.50;95.60;;;;;;4936719;28;20447;-84
2023/04/26 03:32:53;;;;;;;3.27;1.50;;;4.50;95.60;;;;;;4945395;28;20444;-82
2023/04/26 03:35:19;;;;;;;4.05;1.75;;;4.50;95.60;;;;;;4937005;28;20042;-84
2023/04/26 03:37:45;;;;;;;4.90;1.93;;;4.50;95.60;;;;;;4942919;28;20546;-82
2023/04/26 03:40:12;;;;;;;4.95;1.85;;;4.50;95.60;;;;;;4935216;28;20051;-83
2023/04/26 03:42:38;;;;;;;4.03;1.88;;;4.50;95.60;;;;;;4931835;28;20427;-83
2023/04/26 03:45:04;;;;;;;5.05;2.10;;;4.50;95.60;;;;;;4939177;28;20023;-83
2023/04/26 03:47:30;;;;;;;7.37;2.10;;;4.40;95.60;;;;;;4949931;28;20027;-84
2023/04/26 03:49:56;;;;;;;2.92;1.42;;;4.40;95.50;;;;;;4939810;28;20038;-82
2023/04/26 03:52:23;;;;;;;4.47;1.80;;;4.40;95.60;;;;;;4917801;28;20018;-84
2023/04/26 03:54:49;;;;;;;4.20;1.90;;;4.50;95.60;;;;;;4902870;28;20161;-84
2023/04/26 03:57:14;;;;;;;3.50;1.80;;;4.50;95.60;;;;;;4948133;28;20085;-83
2023/04/26 03:59:40;;;;;;;3.17;1.70;;;4.40;95.60;;;;;;4938228;28;20366;-83
2023/04/26 04:02:06;;;;;;;2.90;1.60;;;4.40;95.90;;;;;;4952537;28;20117;-82
2023/04/26 04:04:32;;;;;;;4.17;1.80;;;4.40;95.60;;;;;;4932592;28;20023;-84
2023/04/26 04:06:58;;;;;;;3.80;1.73;;;4.50;95.70;;;;;;4947373;28;20031;-83
2023/04/26 04:09:24;;;;;;;4.18;1.70;;;4.40;95.60;;;;;;4930598;28;20046;-84
2023/04/26 04:11:50;;;;;;;3.33;1.60;;;4.40;95.70;;;;;;4929253;28;20117;-82
2023/04/26 04:14:16;;;;;;;5.97;1.77;;;4.40;95.60;;;;;;4934164;28;20515;-84
2023/04/26 04:16:42;;;;;;;3.70;1.85;;;4.40;95.60;;;;;;4913054;28;20034;-82
2023/04/26 04:19:07;;;;;;;4.57;1.87;;;4.40;95.70;;;;;;4957687;28;20026;-83
2023/04/26 04:21:33;;;;;;;3.85;1.80;;;4.40;95.70;;;;;;4920057;28;20031;-84
2023/04/26 04:23:59;;;;;;;4.47;2.33;;;4.30;95.70;;;;;;4918185;28;20034;-83
2023/04/26 04:26:26;;;;;;;4.03;1.70;;;4.30;95.70;;;;;;4916050;28;20518;-84
2023/04/26 04:28:54;;;;;;;4.38;1.70;;;4.30;95.80;;;;;;4931351;28;20386;-83
2023/04/26 04:31:20;;;;;;;3.75;1.70;;;4.30;95.80;;;;;;4926920;28;20396;-85
2023/04/26 04:33:47;;;;;;;3.53;1.70;;;4.30;95.90;;;;;;4920380;28;20966;-82
2023/04/26 04:36:15;;;;;;;4.70;1.80;;;4.30;96.00;;;;;;4952133;28;20520;-84
2023/04/26 04:38:41;;;;;;;4.53;1.95;;;4.30;96.10;;;;;;4947343;28;20476;-82
2023/04/26 04:41:07;;;;;;;5.05;2.10;;;4.30;96.20;;;;;;4939266;28;20114;-84
2023/04/26 04:43:33;;;;;;;4.13;1.63;;;4.30;96.30;;;;;;4921505;28;20110;-83
2023/04/26 04:45:59;;;;;;;4.15;2.03;;;4.30;96.40;;;;;;4918012;28;20034;-84
2023/04/26 04:48:25;;;;;;;4.85;2.10;;;4.30;96.50;;;;;;4950766;28;20310;-82
2023/04/26 04:50:51;;;;;;;3.70;1.87;;;4.40;96.70;;;;;;4937987;28;20030;-82
2023/04/26 04:53:17;;;;;;;4.47;1.88;;;4.40;96.70;;;;;;4923549;28;20475;-83
2023/04/26 04:55:43;;;;;;;4.80;2.30;;;4.40;96.90;;;;;;4933445;28;20022;-83
2023/04/26 04:58:09;;;;;;;4.00;1.83;;;4.40;97.00;;;;;;4933205;28;20056;-84
2023/04/26 05:00:36;;;;;;;5.45;2.00;;;4.50;97.10;;;;;;4929357;28;20027;-83
2023/04/26 05:03:03;;;;;;;4.30;2.10;;;4.50;97.20;;;;;;4929061;28;20082;-82
2023/04/26 05:05:29;;;;;;;4.57;2.15;;;4.60;97.30;;;;;;4941871;28;20038;-84
2023/04/26 05:07:55;;;;;;;6.45;2.35;;;4.60;97.40;;;;;;4924198;28;20240;-83
2023/04/26 05:10:21;;;;;;;4.10;2.00;;;4.70;97.60;;;;;;4925041;28;20579;-83
2023/04/26 05:12:47;;;;;;;4.72;2.00;;;4.70;97.70;;;;;;4945751;28;20594;-85
2023/04/26 05:15:12;;;;;;;5.17;2.07;;;4.80;97.90;;;;;;4955852;28;20576;-83
2023/04/26 05:17:38;;;;;;;5.72;1.92;;;4.80;97.90;;;;;;4932436;28;20027;-82
2023/04/26 05:20:06;;;;;;;4.50;1.80;;;4.80;98.10;;;;;;4922646;28;20031;-84
2023/04/26 05:22:34;;;;;;;7.80;2.22;;;4.90;98.50;;;;;;4929501;28;20448;-83
2023/04/26 05:25:00;;;;;;;5.72;2.17;;;5.00;98.30;;;;;;4913001;28;20469;-85
2023/04/26 05:27:27;;;;;;;4.53;1.90;;;5.00;98.40;;;;;;4923118;28;20031;-83
2023/04/26 05:29:53;;;;;;;4.80;2.10;;;5.10;98.50;;;;;;4949290;28;20484;-84
2023/04/26 05:32:19;;;;;;;5.00;2.33;;;5.20;98.70;;;;;;4929860;28;20053;-83
2023/04/26 05:34:45;;;;;;;4.97;2.10;;;5.30;98.80;;;;;;4957564;28;20057;-84
2023/04/26 05:37:11;;;;;;;5.07;2.53;;;5.30;98.90;;;;;;4932891;28;20276;-83
2023/04/26 05:39:37;;;;;;;5.40;2.30;;;5.40;98.90;;;;;;4939867;28;20064;-83
2023/04/26 05:42:02;;;;;;;8.20;2.90;;;5.40;99.00;;;;;;4917202;28;20113;-84
2023/04/26 05:44:28;;;;;;;4.68;2.22;;;5.50;99.10;;;;;;4925211;28;20065;-84
2023/04/26 05:46:54;;;;;;;4.43;2.40;;;5.50;99.10;;;;;;4944092;28;20035;-84
2023/04/26 05:49:20;;;;;;;4.13;2.30;;;5.60;99.30;;;;;;4933904;28;20377;-84
2023/04/26 05:51:46;;;;;;;6.03;2.53;;;5.60;99.40;;;;;;4955406;28;20030;-84
2023/04/26 05:54:12;;;;;;;5.83;2.67;;;5.70;99.60;;;;;;4928935;28;20035;-85
2023/04/26 05:56:37;;;;;;;4.95;2.63;;;5.80;99.80;;;;;;4942615;28;21050;-83
2023/04/26 05:59:03;;;;;;;4.80;2.60;;;5.80;99.90;;;;;;4911498;28;20026;-83
2023/04/26 06:01:29;;;;;;;4.85;2.53;;;5.90;99.90;;;;;;4937298;28;20765;-82
2023/04/26 06:03:55;;;;;;;4.90;2.50;;;6.00;99.90;;;;;;4947211;28;20038;-83
2023/04/26 06:06:21;;;;;;;5.30;2.80;;;6.10;99.90;;;;;;4938586;28;20506;-84
2023/04/26 06:08:46;;;;;;;5.27;2.70;;;6.20;99.90;;;;;;4938858;28;20023;-85
2023/04/26 06:11:12;;;;;;;5.90;2.75;;;6.30;99.90;;;;;;4913087;28;20024;-84
2023/04/26 06:13:38;;;;;;;5.90;2.57;;;6.40;99.90;;;;;;4901570;28;20054;-82
2023/04/26 06:16:04;;;;;;;4.72;2.30;;;6.60;99.90;;;;;;4920190;28;20026;-83
2023/04/26 06:18:30;;;;;;;5.53;2.50;;;6.70;99.90;;;;;;4932847;28;20301;-82
2023/04/26 06:20:55;;;;;;;5.40;2.40;;;6.80;99.90;;;;;;4931863;28;20023;-84
2023/04/26 06:23:21;;;;;;;5.55;2.35;;;6.90;99.90;;;;;;4933030;28;20043;-84
2023/04/26 06:25:47;;;;;;;6.00;2.80;;;7.00;99.90;;;;;;4891454;28;20065;-84
2023/04/26 06:28:13;;;;;;;5.70;2.55;;;7.20;99.90;;;;;;4916332;28;20122;-83
2023/04/26 06:30:39;;;;;;;5.70;2.38;;;7.30;99.90;;;;;;4943921;28;20110;-82
2023/04/26 06:33:05;;;;;;;6.90;2.60;;;7.40;99.90;;;;;;4944344;28;20125;-82
2023/04/26 06:35:30;;;;;;;6.10;2.42;;;7.60;99.90;;;;;;4912368;28;20082;-82
2023/04/26 06:37:56;;;;;;;5.65;2.70;;;7.60;99.90;;;;;;4946737;28;20026;-84
2023/04/26 06:40:22;;;;;;;6.13;2.83;;;7.80;99.90;;;;;;4923842;28;20351;-83
2023/04/26 06:42:48;;;;;;;5.37;2.60;;;7.80;99.90;;;;;;4901277;28;20035;-82
2023/04/26 06:45:13;;;;;;;6.30;2.37;;;7.90;99.90;;;;;;4921958;28;20279;-84
2023/04/26 06:47:40;;;;;;;6.40;2.60;;;8.00;99.90;;;;;;4934717;28;20526;-84
2023/04/26 06:50:06;;;;;;;5.75;2.45;;;8.10;99.90;;;;;;4933933;28;20066;-82
2023/04/26 06:52:32;;;;;;;6.00;2.58;;;8.20;99.90;;;;;;4925190;28;20031;-84
2023/04/26 06:55:02;;;;;;;7.00;2.60;;;8.20;99.90;;;;;;4942373;28;20026;-83
2023/04/26 06:57:27;;;;;;;5.78;2.60;;;8.20;99.90;;;;;;4920260;28;20412;-82
2023/04/26 06:59:53;;;;;;;7.43;3.10;;;8.30;99.90;;;;;;4908852;28;20026;-82
2023/04/26 07:02:19;;;;;;;5.47;2.72;;;8.40;99.90;;;;;;4934549;28;20023;-84
2023/04/26 07:04:45;;;;;;;4.87;2.40;;;8.50;99.90;;;;;;4954843;28;20254;-83
2023/04/26 07:07:11;;;;;;;5.55;2.50;;;8.50;99.90;;;;;;4941261;28;20027;-83
2023/04/26 07:09:37;;;;;;;6.80;2.95;;;8.60;99.90;;;;;;4952695;28;20053;-82
2023/04/26 07:12:03;;;;;;;6.20;2.90;;;8.70;99.90;;;;;;4959302;28;20114;-82
2023/04/26 07:14:28;;;;;;;5.40;2.80;;;8.70;99.90;;;;;;4910249;28;20238;-83
2023/04/26 07:16:54;;;;;;;5.47;2.95;;;8.90;99.90;;;;;;4925782;28;20081;-82
2023/04/26 07:19:20;;;;;;;7.00;2.73;;;8.90;99.90;;;;;;4946154;28;20257;-83
2023/04/26 07:21:45;;;;;;;6.63;3.00;;;9.10;99.90;;;;;;4949556;28;20568;-82
2023/04/26 07:24:12;;;;;;;7.32;2.92;;;9.20;99.90;;;;;;4951650;28;20235;-83
2023/04/26 07:26:38;;;;;;;5.68;2.85;;;9.30;99.90;;;;;;4948781;28;20270;-83
2023/04/26 07:29:04;;;;;;;6.30;2.70;;;9.50;99.90;;;;;;4926457;28;20106;-83
2023/04/26 07:31:31;;;;;;;6.38;2.90;;;9.70;99.90;;;;;;4901853;28;20744;-81
2023/04/26 07:33:57;;;;;;;6.00;2.80;;;9.80;99.90;;;;;;4950173;28;20019;-82
2023/04/26 07:36:23;;;;;;;6.05;2.90;;;9.90;99.90;;;;;;4915145;28;20028;-83
2023/04/26 07:38:49;;;;;;;4.30;2.40;;;10.10;99.90;;;;;;4945954;28;20029;-82
2023/04/26 07:41:16;;;;;;;4.47;2.33;;;10.20;99.90;;;;;;4931964;28;20014;-83
2023/04/26 07:43:42;;;;;;;6.38;3.03;;;10.30;99.90;;;;;;4937991;28;20515;-82
2023/04/26 07:46:08;;;;;;;5.03;2.55;;;10.40;99.90;;;;;;4907622;28;20038;-84
2023/04/26 07:48:33;;;;;;;5.33;2.57;;;10.60;99.90;;;;;;4933657;28;20034;-83
2023/04/26 07:51:12;;;;;;;5.10;2.55;;;10.80;99.90;;;;;;4934926;28;20377;-82
2023/04/26 07:53:39;;;;;;;6.20;2.70;;;10.90;99.90;;;;;;4924770;28;20070;-81
2023/04/26 07:56:06;;;;;;;4.57;2.63;;;11.20;99.90;;;;;;4952237;28;20161;-82
2023/04/26 07:58:33;;;;;;;4.35;2.42;;;11.40;99.90;;;;;;4921184;28;20196;-83
2023/04/26 08:00:59;;;;;;;4.63;2.63;;;11.60;99.90;;;;;;4922385;28;20225;-82
2023/04/26 08:03:26;;;;;;;5.20;2.20;;;11.70;99.90;;;;;;4900444;28;20085;-83
2023/04/26 08:05:52;;;;;;;5.97;2.40;;;11.90;99.90;;;;;;4935644;28;20057;-82
2023/04/26 08:08:18;;;;;;;5.53;2.35;;;12.10;99.90;;;;;;4943139;28;20053;-83
2023/04/26 08:10:44;;;;;;;6.70;2.70;;;12.20;99.90;;;;;;4950416;28;20066;-83
2023/04/26 08:13:10;;;;;;;4.53;2.55;;;12.30;99.90;;;;;;4930391;28;20491;-83
2023/04/26 08:15:36;;;;;;;4.17;2.53;;;12.30;99.90;;;;;;4924254;28;20041;-81
2023/04/26 08:18:02;;;;;;;4.70;2.00;;;12.40;99.90;;;;;;4929663;28;20031;-81
2023/04/26 08:20:28;;;;;;;5.00;2.35;;;12.40;99.90;;;;;;4935241;28;20730;-83
2023/04/26 08:22:57;;;;;;;4.00;2.50;;;12.50;99.90;;;;;;4947463;28;20645;-81
2023/04/26 08:25:23;;;;;;;3.78;2.17;;;12.50;99.90;;;;;;4943785;28;20055;-84
2023/04/26 08:27:49;;;;;;;4.25;2.53;;;12.50;99.90;;;;;;4954445;28;20579;-81
2023/04/26 08:30:15;;;;;;;3.83;2.40;;;12.70;99.90;;;;;;4951692;28;20041;-84
2023/04/26 08:32:41;;;;;;;5.25;2.83;;;12.80;99.90;;;;;;4903620;28;20583;-82
2023/04/26 08:35:08;;;;;;;6.03;2.63;;;13.20;99.90;;;;;;4933426;28;20031;-82
2023/04/26 08:37:37;;;;;;;3.58;2.15;;;13.60;99.90;;;;;;4940445;28;20618;-81
2023/04/26 08:40:06;;;;;;;4.95;2.67;;;14.00;99.90;;;;;;4946998;28;20491;-83
2023/04/26 08:42:37;;;;;;;5.18;2.85;;;14.40;99.90;;;;;;4940082;28;20150;-81
2023/04/26 08:45:04;;;;;;;5.47;2.77;;;14.70;99.90;;;;;;4938886;28;20025;-80
2023/04/26 08:47:36;;;;;;;5.57;2.90;;;15.00;99.90;;;;;;4932530;28;20279;-81
2023/04/26 08:50:04;;;;;;;5.28;2.90;;;15.40;99.90;;;;;;4955334;28;20038;-82
2023/04/26 08:52:31;;;;;;;5.75;3.22;;;15.80;99.90;;;;;;4947288;28;20185;-80
2023/04/26 08:54:58;;;;;;;5.88;3.10;;;16.30;99.90;;;;;;4946867;28;20122;-83
2023/04/26 08:57:25;;;;;;;5.60;3.10;;;16.70;99.90;;;;;;4941412;28;20027;-84
2023/04/26 08:59:55;;;;;;;5.88;2.70;;;17.20;99.90;;;;;;4944464;28;20035;-82
2023/04/26 09:02:22;;;;;;;3.70;2.40;;;17.50;99.90;;;;;;4949407;28;20037;-83
2023/04/26 09:04:50;;;;;;;4.90;2.33;;;17.90;99.90;;;;;;4933986;28;20015;-82
2023/04/26 09:07:43;;;;;;;3.65;2.10;;;18.30;99.90;;;;;;4955100;28;20018;-84
2023/04/26 09:10:11;;;;;;;2.93;1.90;;;18.80;98.50;;;;;;4929410;28;21345;-84
2023/04/26 09:12:37;;;;;;;4.25;1.80;;;19.00;99.90;;;;;;4953399;28;20027;-82
2023/04/26 09:15:07;;;;;;;2.45;1.70;;;19.20;99.80;;;;;;4937813;28;20109;-83
2023/04/26 09:17:35;;;;;;;2.15;1.40;;;19.20;97.70;;;;;;4949207;28;20194;-83
2023/04/26 09:20:23;;;;;;;5.05;1.70;;;19.20;99.90;;;;;;4931286;28;20042;-82
2023/04/26 09:23:06;;;;;;;3.23;1.63;;;19.40;97.00;;;;;;4940576;28;20031;-82
2023/04/26 09:25:32;;;;;;;4.00;1.60;;;19.60;99.90;;;;;;4929253;28;20031;-81
2023/04/26 09:27:59;;;;;;;3.10;1.90;;;19.90;99.90;;;;;;4940777;28;20058;-82
2023/04/26 09:30:26;;;;;;;2.75;1.70;;;20.30;99.90;;;;;;4952646;28;20078;-84
2023/04/26 09:32:54;;;;;;;4.20;1.80;;;20.60;99.90;;;;;;4940702;28;20106;-81
2023/04/26 09:35:29;;;;;;;2.07;1.30;;;20.90;99.90;;;;;;4904268;28;20031;-84
2023/04/26 09:37:57;;;;;;;3.05;1.50;;;21.10;97.30;;;;;;4923066;28;20038;-82
2023/04/26 09:40:24;;;;;;;2.63;1.60;;;21.10;97.10;;;;;;4913191;28;20046;-83
2023/04/26 09:43:01;;;;;;;3.55;1.70;;;20.90;96.60;;;;;;4957714;28;20035;-82
2023/04/26 09:45:28;;;;;;;2.28;1.48;;;20.60;93.90;;;;;;4939839;28;20023;-82
2023/04/26 09:47:55;;;;;;;2.50;1.63;;;20.40;96.50;;;;;;4943895;28;20037;-81
2023/04/26 09:50:28;;;;;;;2.95;1.40;;;20.30;97.90;;;;;;4937069;28;20425;-83
2023/04/26 09:52:54;;;;;;;1.95;1.30;;;20.20;95.20;;;;;;4949582;28;20023;-82
2023/04/26 09:55:30;;;;;;;2.13;1.40;;;20.10;97.10;;;;;;4924463;28;20034;-84
2023/04/26 09:57:59;;;;;;;2.50;1.42;;;20.10;93.80;;;;;;4947410;28;20046;-82
2023/04/26 10:00:25;;;;;;;2.53;1.50;;;19.90;96.70;;;;;;4938529;28;20054;-84
2023/04/26 10:02:54;;;;;;;2.38;1.52;;;19.80;97.30;;;;;;4939860;28;20106;-83
2023/04/26 10:05:21;;;;;;;2.47;1.40;;;19.90;97.00;;;;;;4922032;28;20761;-84
2023/04/26 10:07:48;;;;;;;2.20;1.45;;;19.90;99.10;;;;;;4930541;28;20026;-81
2023/04/26 10:10:14;;;;;;;3.15;1.67;;;20.00;99.50;;;;;;4922317;28;20732;-83
2023/04/26 10:12:41;;;;;;;2.90;1.77;;;20.20;99.90;;;;;;4931811;28;20492;-82
2023/04/26 10:15:11;;;;;;;3.05;1.60;;;20.40;99.90;;;;;;4950207;28;20711;-82
2023/04/26 10:17:37;;;;;;;2.10;1.50;;;20.70;98.70;;;;;;4955296;28;20670;-82
2023/04/26 10:20:07;;;;;;;4.30;1.67;;;20.90;99.60;;;;;;4933239;28;20506;-82
2023/04/26 10:22:43;;;;;;;4.50;1.70;;;21.00;98.00;;;;;;4932659;28;20042;-81
2023/04/26 10:25:09;;;;;;;2.07;1.40;;;21.10;96.90;;;;;;4930411;28;20412;-84
2023/04/26 10:27:44;;;;;;;1.83;1.50;;;21.10;98.30;;;;;;4934588;28;20154;-84
2023/04/26 10:30:15;;;;;;;2.65;1.42;;;21.20;96.30;;;;;;4954114;28;20058;-83
2023/04/26 10:32:55;;;;;;;3.97;1.52;;;21.20;97.60;;;;;;4953210;28;20642;-82
2023/04/26 10:35:31;;;;;;;2.75;1.50;;;21.10;93.60;;;;;;4952367;28;20026;-83
2023/04/26 10:38:00;;;;;;;3.53;1.60;;;21.10;96.00;;;;;;4921444;28;20031;-82
2023/04/26 10:40:35;;;;;;;3.88;1.50;;;21.10;95.80;;;;;;4944438;28;20125;-83
2023/04/26 10:43:10;;;;;;;2.10;1.50;;;21.00;95.40;;;;;;4931313;28;20554;-84
2023/04/26 10:45:37;;;;;;;2.63;1.60;;;20.90;94.00;;;;;;4928108;28;20034;-83
2023/04/26 10:48:29;;;;;;;3.45;1.70;;;20.90;97.60;;;;;;4920385;28;20701;-81
2023/04/26 10:51:00;;;;;;;1.90;1.70;;;21.00;93.60;;;;;;4938059;28;20340;-82
2023/04/26 10:53:29;;;;;;;2.78;1.58;;;21.00;96.90;;;;;;4899510;28;20468;-83
2023/04/26 10:55:55;;;;;;;2.53;1.60;;;21.10;98.10;;;;;;4930982;28;20158;-82
2023/04/26 10:58:29;;;;;;;2.65;1.63;;;21.30;99.40;;;;;;4936618;28;20049;-83
2023/04/26 11:01:10;;;;;;;3.75;1.70;;;21.60;97.90;;;;;;4912099;28;20019;-82
2023/04/26 11:03:37;;;;;;;2.70;1.60;;;22.00;97.70;;;;;;4934514;28;20513;-83
2023/04/26 11:06:06;;;;;;;3.13;1.83;;;22.50;99.90;;;;;;4942451;28;20721;-82
2023/04/26 11:08:33;;;;;;;2.30;1.60;;;22.80;98.10;;;;;;4912012;28;20440;-83
2023/04/26 11:11:11;;;;;;;2.05;1.63;;;23.10;98.50;;;;;;4929713;28;20674;-83
2023/04/26 11:13:43;;;;;;;2.72;1.75;;;23.30;99.50;;;;;;4950334;28;20609;-83
2023/04/26 11:16:16;;;;;;;2.20;1.57;;;23.70;97.20;;;;;;4946408;28;20030;-81
2023/04/26 11:18:45;;;;;;;2.35;1.42;;;23.90;99.90;;;;;;4939672;28;20472;-84
2023/04/26 11:21:14;;;;;;;2.90;1.60;;;24.40;99.90;;;;;;4926782;28;20022;-83
2023/04/26 11:23:40;;;;;;;2.50;1.48;;;24.80;99.00;;;;;;4904440;28;20028;-84
2023/04/26 11:26:09;;;;;;;2.17;1.40;;;25.00;97.40;;;;;;4946071;28;20210;-82
2023/04/26 11:28:37;;;;;;;2.40;1.80;;;25.10;95.60;;;;;;4920582;28;20128;-82
2023/04/26 11:31:05;;;;;;;2.70;1.70;;;25.00;94.30;;;;;;4940769;28;20042;-82
2023/04/26 11:33:32;;;;;;;2.70;1.80;;;24.90;94.10;;;;;;4938731;28;20301;-83
2023/04/26 11:35:59;;;;;;;2.20;1.70;;;24.80;94.90;;;;;;4942472;28;20031;-82
2023/04/26 11:38:25;;;;;;;3.47;1.77;;;24.70;95.20;;;;;;4939462;28;20117;-84
2023/04/26 11:41:01;;;;;;;3.43;1.77;;;24.80;95.10;;;;;;4927427;28;20854;-82
2023/04/26 11:43:39;;;;;;;2.60;1.73;;;24.80;93.70;;;;;;4933397;28;20109;-84
2023/04/26 11:46:07;;;;;;;3.53;2.00;;;24.80;90.80;;;;;;4924432;28;20562;-82
2023/04/26 11:48:35;;;;;;;3.65;1.80;;;24.80;94.30;;;;;;4927660;28;20023;-84
2023/04/26 11:51:07;;;;;;;2.30;1.73;;;24.80;93.40;;;;;;4928330;28;20037;-82
2023/04/26 11:53:40;;;;;;;4.07;1.83;;;24.80;93.00;;;;;;4938873;28;20035;-85
2023/04/26 11:56:16;;;;;;;2.97;1.80;;;24.80;93.10;;;;;;4917281;28;20023;-81
2023/04/26 11:58:52;;;;;;;3.17;1.80;;;24.80;90.20;;;;;;4935318;28;20241;-83
2023/04/26 12:01:23;;;;;;;2.10;1.52;;;24.60;88.60;;;;;;4929738;28;20125;-83
2023/04/26 12:03:50;;;;;;;4.80;1.70;;;24.30;90.10;;;;;;4922022;28;20098;-84
2023/04/26 12:06:16;;;;;;;3.70;2.40;;;24.10;93.20;;;;;;4939164;28;20087;-83
2023/04/26 12:08:50;;;;;;;2.72;1.70;;;24.10;93.80;;;;;;4922336;28;20058;-83
2023/04/26 12:11:16;;;;;;;3.42;1.92;;;24.00;91.10;;;;;;4915602;28;20134;-83
2023/04/26 12:13:42;;;;;;;3.17;1.75;;;23.90;93.70;;;;;;4918820;28;20166;-83
2023/04/26 12:16:08;;;;;;;2.97;1.80;;;23.70;92.90;;;;;;4933717;28;20341;-82
2023/04/26 12:18:34;;;;;;;3.15;2.10;;;23.60;93.00;;;;;;4937381;28;20262;-81
2023/04/26 12:21:00;;;;;;;3.33;2.00;;;23.40;93.40;;;;;;4942208;28;20027;-84
2023/04/26 12:23:34;;;;;;;3.08;1.98;;;23.40;94.60;;;;;;4949685;28;20037;-83
2023/04/26 12:26:02;;;;;;;3.40;2.07;;;23.50;94.80;;;;;;4919253;28;20109;-82
2023/04/26 12:28:28;;;;;;;2.25;1.80;;;23.50;95.40;;;;;;4948870;28;20031;-83
2023/04/26 12:30:54;;;;;;;3.05;1.88;;;23.70;95.00;;;;;;4940999;28;20047;-83
2023/04/26 12:33:21;;;;;;;3.38;1.88;;;23.70;94.60;;;;;;4938132;28;20066;-83
2023/04/26 12:35:49;;;;;;;3.95;1.83;;;23.70;93.70;;;;;;4950134;28;20293;-83
2023/04/26 12:38:15;;;;;;;3.07;1.90;;;23.60;92.60;;;;;;4913043;28;20130;-83
2023/04/26 12:40:41;;;;;;;2.78;1.75;;;23.50;92.50;;;;;;4946759;28;20031;-82
2023/04/26 12:43:07;;;;;;;2.70;1.83;;;23.40;91.70;;;;;;4935078;28;20035;-81
2023/04/26 12:45:33;;;;;;;3.73;1.93;;;23.10;91.70;;;;;;4951430;28;20464;-83
2023/04/26 12:47:59;;;;;;;3.30;1.88;;;23.00;92.30;;;;;;4936538;28;20030;-81
2023/04/26 12:50:25;;;;;;;3.13;1.70;;;23.00;93.40;;;;;;4939061;28;20034;-82
2023/04/26 12:52:50;;;;;;;3.10;1.83;;;23.00;93.90;;;;;;4889836;28;20740;-84